Saint Petersburg, FL (33701)

11:09 PM EST on December 09, 2016 (GMT -0500)
Pinellas St. Petersburg Municipal Bldg. WeatherSTEM | | Change Station

Elev 0 ft 27.77 °N, 82.64 °W | Updated 5 seconds ago

Clear
Clear
54.5 °F
Feels Like 54.5 °F
N
4.0
Wind Variable Wind from West

Today
High -- | Low -- °F
--% Chance of Precip.
Yesterday
High -- | Low -- °F
Precip. -- in
Pressure 30.33 in
Visibility 10.0 miles
Clouds Clear
Dew Point 44 °F
Humidity 67%
Rainfall 0.02 in
Snow Depth Not available.
7:10 AM 5:36 PM
Waxing Gibbous, 80% visible
METAR KSPG 100353Z AUTO 04018KT 10SM CLR 14/09 A3033 RMK AO2 SLP269 T01390089
Pressure 30.33 in
Visibility 10.0 miles
Clouds Clear
Dew Point 44 °F
Humidity 67%
Rainfall 0.02 in
Snow Depth Not available.
7:10 AM 5:36 PM
Waxing Gibbous, 80% visible
METAR KSPG 100353Z AUTO 04018KT 10SM CLR 14/09 A3033 RMK AO2 SLP269 T01390089

10-Day Weather Forecast

Almanac

Astronomy

Dec. 09, 2016 Rise Set
Actual Time
Civil Twilight
Nautical Twilight
Astronomical Twilight
Moon
Length of Visible Light
Length of Day
Tomorrow will be .
, % of the Moon is Illuminated

Today's Extremes

State Highs State Lows

Community

WunderPhotos

Upload Photos

1,956,529 photos uploaded!

WunderBlog® & News

Nearby

Air Quality

  Air Quality AQ Index Pollutant
Not available.

Snow Depth

Station Depth Elevation

Earthquake Activity

City Distance Mag. Time & Date
Minimum magnitude displayed is 2.5.

Coastal Water Temperatures

Place Temperature

Stations

Nearby Weather Stations

Station Location Temp. Windchill Dew Point Humidity Wind Precip. Elev Updated Type
                   

Watches & Warnings

There are currently no watches in effect.